Time;durP1;ratioP1;P1;durP2;ratioP2;P2;SDS_P1;SDS_P2;PMS_P1;PMS_P2;Temp;Humidity;BMP_temperature;BMP_pressure;BME280_temperature;BME280_humidity;BME280_pressure;Samples;Min_cycle;Max_cycle;Signal;HPM_P1;HPM_P2
2023/09/27 00:01:20;;;;;;;6.53;6.03;;;15.90;99.90;;;;;;10398742;28;20223;-79
2023/09/27 00:07:04;;;;;;;6.30;5.90;;;15.90;99.90;;;;;;10355771;28;20225;-80
2023/09/27 00:38:06;;;;;;;6.53;6.03;;;15.70;99.90;;;;;;10372910;23;20231;-80
2023/09/27 00:50:24;;;;;;;5.77;5.27;;;15.60;99.90;;;;;;10296046;28;20702;-80
2023/09/27 00:56:27;;;;;;;6.37;5.83;;;15.60;99.90;;;;;;10303834;28;20220;-80
2023/09/27 01:02:21;;;;;;;6.00;5.67;;;15.60;99.90;;;;;;10141496;29;20259;-79
2023/09/27 01:08:27;;;;;;;6.30;5.80;;;15.60;99.90;;;;;;10314584;28;20236;-80
2023/09/27 01:27:29;;;;;;;6.03;5.63;;;15.50;99.90;;;;;;10377838;23;20762;-79
2023/09/27 01:39:32;;;;;;;;;;;;;;;;;;;;;
2023/09/27 01:59:07;;;;;;;5.90;5.60;;;15.40;99.90;;;;;;10317749;28;20211;-78
2023/09/27 02:05:06;;;;;;;6.07;5.30;;;15.30;99.90;;;;;;10349609;28;20219;-80
2023/09/27 02:16:41;;;;;;;6.20;5.80;;;15.30;99.90;;;;;;10359393;28;20320;-79
2023/09/27 02:23:12;;;;;;;5.43;5.13;;;15.30;99.90;;;;;;10348200;28;20200;-79
2023/09/27 02:28:59;;;;;;;6.50;6.10;;;15.20;99.90;;;;;;10350163;28;20417;-79
2023/09/27 02:54:14;;;;;;;6.23;5.73;;;15.10;99.90;;;;;;10233211;28;20293;-80
2023/09/27 02:59:53;;;;;;;5.50;5.10;;;15.20;99.90;;;;;;10230738;28;20198;-80
2023/09/27 03:25:06;;;;;;;6.33;5.93;;;15.00;99.90;;;;;;10368278;28;20215;-80
2023/09/27 04:08:59;;;;;;;6.27;5.87;;;14.80;99.90;;;;;;10374277;28;20238;-80
2023/09/27 04:21:31;;;;;;;6.50;5.93;;;14.80;99.90;;;;;;10318153;28;20207;-79
2023/09/27 04:46:58;;;;;;;5.57;4.90;;;14.70;99.90;;;;;;10330901;28;20222;-79
2023/09/27 04:52:22;;;;;;;6.00;5.50;;;14.70;99.90;;;;;;10374665;28;20230;-79
2023/09/27 04:57:35;;;;;;;6.17;5.67;;;14.60;99.90;;;;;;10363033;28;20238;-79
2023/09/27 05:02:42;;;;;;;6.30;5.87;;;14.60;99.90;;;;;;10370988;28;20210;-80
2023/09/27 05:13:44;;;;;;;6.70;6.10;;;14.60;99.90;;;;;;10403187;23;20641;-79
2023/09/27 05:19:17;;;;;;;6.83;6.13;;;14.60;99.90;;;;;;10458846;28;20267;-79
2023/09/27 05:31:38;;;;;;;7.23;6.63;;;14.60;99.90;;;;;;10403301;28;20208;-79
2023/09/27 05:36:52;;;;;;;7.43;6.83;;;14.60;99.90;;;;;;10461130;28;20321;-79
2023/09/27 05:42:06;;;;;;;8.37;7.60;;;14.70;99.90;;;;;;10453036;28;20220;-80
2023/09/27 05:47:35;;;;;;;7.50;6.90;;;14.70;99.90;;;;;;10435980;23;20269;-80
2023/09/27 05:53:54;;;;;;;6.83;6.30;;;14.70;99.90;;;;;;10465991;22;20839;-79
2023/09/27 05:59:24;;;;;;;6.47;5.70;;;14.70;99.90;;;;;;10415138;28;20199;-80
2023/09/27 06:04:35;;;;;;;6.30;5.80;;;14.80;99.90;;;;;;10418479;22;20463;-79
2023/09/27 06:09:53;;;;;;;6.73;6.23;;;14.80;99.90;;;;;;10386618;28;20667;-80
2023/09/27 06:15:25;;;;;;;7.80;7.10;;;14.80;99.90;;;;;;10370160;28;20231;-80
2023/09/27 06:20:48;;;;;;;7.17;6.57;;;14.80;99.90;;;;;;10348532;28;20203;-80
2023/09/27 06:26:07;;;;;;;8.10;7.40;;;14.80;99.90;;;;;;10347477;28;20224;-80
2023/09/27 06:38:05;;;;;;;7.60;6.93;;;14.90;99.90;;;;;;10346926;28;20217;-80
2023/09/27 06:43:34;;;;;;;14.00;8.63;;;15.00;99.90;;;;;;10222112;29;20221;-79
2023/09/27 06:49:16;;;;;;;8.27;7.57;;;15.00;99.90;;;;;;10334995;28;20768;-79
2023/09/27 07:14:03;;;;;;;8.50;7.80;;;15.30;99.90;;;;;;10216210;28;20235;-79
2023/09/27 07:25:55;;;;;;;8.60;7.83;;;15.40;99.90;;;;;;10334537;28;20227;-80
2023/09/27 07:31:58;;;;;;;9.10;8.20;;;15.40;99.90;;;;;;10333449;28;20208;-80
2023/09/27 07:49:13;;;;;;;9.00;8.20;;;15.70;99.90;;;;;;10292255;28;20212;-80
2023/09/27 07:54:58;;;;;;;9.07;8.30;;;15.80;99.90;;;;;;10324380;23;20296;-79
2023/09/27 08:00:36;;;;;;;9.67;8.87;;;15.90;99.90;;;;;;10407266;28;20294;-79
2023/09/27 08:05:48;;;;;;;9.10;8.23;;;16.00;99.90;;;;;;10390469;28;20607;-78
2023/09/27 08:11:37;;;;;;;9.60;8.90;;;16.20;99.90;;;;;;10386494;28;20206;-80
2023/09/27 08:17:46;;;;;;;9.00;8.20;;;16.20;99.90;;;;;;10422507;28;20219;-80
2023/09/27 08:23:23;;;;;;;8.57;7.57;;;16.40;99.90;;;;;;10309745;28;20203;-80
2023/09/27 08:41:06;;;;;;;9.40;8.60;;;16.70;99.90;;;;;;10368110;28;20398;-81
2023/09/27 08:47:11;;;;;;;10.00;8.47;;;16.70;99.90;;;;;;10373231;28;20306;-80
2023/09/27 09:05:23;;;;;;;7.30;6.70;;;17.00;99.90;;;;;;10404553;28;20317;-80
2023/09/27 09:17:25;;;;;;;7.70;7.00;;;17.10;99.90;;;;;;10402884;28;20227;-80
2023/09/27 09:35:09;;;;;;;5.50;4.93;;;17.60;99.90;;;;;;10378400;28;20223;-80
2023/09/27 09:40:56;;;;;;;6.17;5.77;;;17.90;99.90;;;;;;10361372;28;20196;-80
2023/09/27 09:46:27;;;;;;;6.20;5.63;;;18.20;99.90;;;;;;10356878;28;20215;-81
2023/09/27 09:52:01;;;;;;;5.40;5.00;;;18.60;99.90;;;;;;10379580;28;20294;-81
2023/09/27 10:03:07;;;;;;;6.20;5.70;;;19.00;99.90;;;;;;10381425;28;20223;-81
2023/09/27 10:08:33;;;;;;;8.33;5.90;;;19.00;99.90;;;;;;10364277;28;20238;-80
2023/09/27 10:13:55;;;;;;;5.37;4.97;;;19.00;99.90;;;;;;10377666;28;20256;-80
2023/09/27 10:19:02;;;;;;;6.47;5.97;;;19.00;99.90;;;;;;10375248;28;20690;-80
2023/09/27 10:24:07;;;;;;;5.43;4.93;;;19.00;99.90;;;;;;10381101;28;20215;-81
2023/09/27 10:29:12;;;;;;;4.73;4.40;;;18.90;99.90;;;;;;10392194;28;20222;-80
2023/09/27 10:34:42;;;;;;;5.73;5.23;;;18.90;99.90;;;;;;10379963;28;20261;-80
2023/09/27 10:40:19;;;;;;;4.67;4.37;;;18.90;99.90;;;;;;10384720;28;20207;-80
2023/09/27 10:45:21;;;;;;;5.33;4.43;;;18.90;99.90;;;;;;10363856;28;20234;-80
2023/09/27 10:50:31;;;;;;;4.37;3.93;;;18.90;99.90;;;;;;10387378;28;20210;-81
2023/09/27 10:55:40;;;;;;;4.53;4.23;;;19.00;99.90;;;;;;10389307;28;20251;-82
2023/09/27 11:00:55;;;;;;;4.40;4.00;;;19.00;99.90;;;;;;10395549;28;20725;-81
2023/09/27 11:06:08;;;;;;;4.13;3.77;;;19.00;99.90;;;;;;10376026;28;20222;-81
2023/09/27 11:11:11;;;;;;;4.30;3.90;;;19.00;99.90;;;;;;10394516;28;20253;-82
2023/09/27 11:16:18;;;;;;;4.20;3.80;;;19.00;99.90;;;;;;10387844;28;20250;-80
2023/09/27 11:21:23;;;;;;;4.23;3.80;;;19.10;99.90;;;;;;10360050;28;20294;-80
2023/09/27 11:26:27;;;;;;;4.57;4.17;;;19.20;99.90;;;;;;10383471;28;20784;-80
2023/09/27 11:31:30;;;;;;;4.27;3.87;;;19.30;99.90;;;;;;10363710;28;20633;-82
2023/09/27 11:36:40;;;;;;;4.50;4.20;;;19.40;99.90;;;;;;10384488;28;20231;-81
2023/09/27 11:41:43;;;;;;;4.30;4.00;;;19.40;99.90;;;;;;10365052;28;20610;-82
2023/09/27 11:46:46;;;;;;;3.50;3.30;;;19.40;99.90;;;;;;10362245;28;20746;-81
2023/09/27 11:51:49;;;;;;;3.53;3.33;;;19.50;99.90;;;;;;10384188;28;20203;-81
2023/09/27 11:56:53;;;;;;;3.93;3.63;;;19.70;99.90;;;;;;10384726;28;20293;-82
2023/09/27 12:01:55;;;;;;;3.37;3.17;;;19.70;99.90;;;;;;10386995;28;20211;-81
2023/09/27 12:06:58;;;;;;;3.50;3.30;;;19.80;99.90;;;;;;10388463;28;20223;-81
2023/09/27 12:12:00;;;;;;;5.73;3.20;;;19.90;99.90;;;;;;10388555;28;20294;-81
2023/09/27 12:17:03;;;;;;;3.00;2.80;;;19.90;99.70;;;;;;10386518;28;20235;-81
2023/09/27 12:22:06;;;;;;;3.40;3.10;;;19.90;99.40;;;;;;10369486;28;20199;-82
2023/09/27 12:27:09;;;;;;;3.57;2.67;;;20.00;98.70;;;;;;10369101;28;20219;-81
2023/09/27 12:32:11;;;;;;;3.57;3.27;;;20.10;99.50;;;;;;10387482;28;20199;-81
2023/09/27 12:37:14;;;;;;;3.73;3.47;;;20.10;99.00;;;;;;10384969;28;20250;-80
2023/09/27 12:42:16;;;;;;;3.17;2.97;;;20.30;98.50;;;;;;10365599;28;20367;-81
2023/09/27 12:47:19;;;;;;;3.53;3.33;;;20.50;98.60;;;;;;10387543;28;20276;-82
2023/09/27 12:52:22;;;;;;;3.10;2.90;;;20.50;99.00;;;;;;10389734;28;20294;-82
2023/09/27 12:57:24;;;;;;;3.20;3.00;;;20.40;99.20;;;;;;10396497;28;20227;-81
2023/09/27 13:02:27;;;;;;;2.90;2.70;;;20.50;98.80;;;;;;10392192;28;20199;-82
2023/09/27 13:07:30;;;;;;;3.43;3.23;;;20.60;98.80;;;;;;10392953;28;20211;-82
2023/09/27 13:12:33;;;;;;;3.27;3.07;;;20.60;98.90;;;;;;10376487;28;20267;-81
2023/09/27 13:17:35;;;;;;;3.90;3.10;;;20.70;98.90;;;;;;10408934;28;20242;-81
2023/09/27 13:22:39;;;;;;;2.90;2.70;;;20.70;98.80;;;;;;10398775;28;20207;-80
2023/09/27 13:27:41;;;;;;;3.50;3.20;;;20.80;98.40;;;;;;10378225;28;20207;-81
2023/09/27 13:32:43;;;;;;;3.40;3.20;;;20.80;98.50;;;;;;10378571;28;20273;-81
2023/09/27 13:37:46;;;;;;;2.97;2.77;;;20.80;99.40;;;;;;10380691;28;20313;-81
2023/09/27 13:42:48;;;;;;;2.80;2.60;;;20.70;99.60;;;;;;10361379;28;20234;-81
2023/09/27 13:47:50;;;;;;;3.10;2.90;;;20.60;99.70;;;;;;10383769;28;20207;-82
2023/09/27 13:52:54;;;;;;;3.03;2.83;;;20.70;98.20;;;;;;10384403;28;20212;-81
2023/09/27 13:57:57;;;;;;;3.13;2.93;;;20.90;97.70;;;;;;10388326;28;20237;-82
2023/09/27 14:02:59;;;;;;;3.67;3.13;;;21.00;98.40;;;;;;10376838;28;20207;-80
2023/09/27 14:08:04;;;;;;;2.90;2.70;;;20.90;99.00;;;;;;10395919;28;20196;-82
2023/09/27 14:13:06;;;;;;;3.97;3.60;;;20.90;98.90;;;;;;10390171;28;20306;-81
2023/09/27 14:18:09;;;;;;;2.93;2.83;;;20.80;99.70;;;;;;10374644;28;20257;-81
2023/09/27 14:23:13;;;;;;;4.63;3.00;;;20.80;99.90;;;;;;10357239;28;20227;-81
2023/09/27 14:28:15;;;;;;;1.77;1.67;;;20.90;98.10;;;;;;10394236;28;20204;-81
2023/09/27 14:33:17;;;;;;;4.70;3.40;;;21.00;97.80;;;;;;10393621;28;20736;-81
2023/09/27 14:38:20;;;;;;;4.10;3.40;;;21.20;98.10;;;;;;10390029;28;20207;-80
2023/09/27 14:43:22;;;;;;;16.20;3.00;;;21.30;98.10;;;;;;10391670;28;20230;-81
2023/09/27 14:48:25;;;;;;;3.17;2.97;;;21.30;98.00;;;;;;10363190;28;20207;-81
2023/09/27 14:53:28;;;;;;;3.10;2.80;;;21.30;97.90;;;;;;10390326;28;20354;-78
2023/09/27 14:58:31;;;;;;;2.57;2.37;;;21.30;97.70;;;;;;10384476;28;20218;-81
2023/09/27 15:03:33;;;;;;;2.97;2.77;;;21.30;97.60;;;;;;10369018;28;20253;-80
2023/09/27 15:08:37;;;;;;;3.93;3.20;;;21.20;98.20;;;;;;10386832;28;20265;-80
2023/09/27 15:13:39;;;;;;;3.00;2.80;;;21.00;98.90;;;;;;10390561;28;20211;-81
2023/09/27 15:18:43;;;;;;;2.50;2.40;;;20.80;99.10;;;;;;10388756;28;20581;-81
2023/09/27 15:24:07;;;;;;;3.23;2.97;;;20.80;98.80;;;;;;10386134;22;20768;-80
2023/09/27 15:29:17;;;;;;;3.00;2.87;;;20.80;98.70;;;;;;10412708;28;20285;-80
2023/09/27 15:34:37;;;;;;;2.57;2.43;;;20.90;98.70;;;;;;10407003;28;20223;-81
2023/09/27 15:39:49;;;;;;;2.27;2.17;;;21.00;97.90;;;;;;10350721;28;20214;-81
2023/09/27 15:45:02;;;;;;;3.10;2.90;;;21.10;96.90;;;;;;10366693;28;20215;-81
2023/09/27 15:50:12;;;;;;;2.73;2.53;;;21.10;97.40;;;;;;10357420;28;20202;-80
2023/09/27 15:55:21;;;;;;;2.47;2.27;;;21.10;98.20;;;;;;10387431;28;20232;-81
2023/09/27 16:00:29;;;;;;;3.10;2.90;;;21.00;98.50;;;;;;10367369;28;20214;-79
2023/09/27 16:05:40;;;;;;;3.30;3.10;;;21.00;98.30;;;;;;10364619;28;20219;-80
2023/09/27 16:10:53;;;;;;;3.23;3.03;;;21.10;98.60;;;;;;10364043;28;20302;-80
2023/09/27 16:15:55;;;;;;;3.07;2.73;;;21.10;98.40;;;;;;10348865;28;20296;-79
2023/09/27 16:20:57;;;;;;;2.67;2.47;;;21.10;99.00;;;;;;10317612;28;20239;-79
2023/09/27 16:26:00;;;;;;;3.73;3.47;;;21.10;99.10;;;;;;10370196;28;20741;-80
2023/09/27 16:31:06;;;;;;;18.23;13.27;;;21.10;99.50;;;;;;10376602;28;20246;-79
2023/09/27 16:36:08;;;;;;;31.40;22.47;;;21.00;99.40;;;;;;10359985;28;20251;-80
2023/09/27 16:41:11;;;;;;;23.63;16.30;;;20.90;99.60;;;;;;10377182;28;20227;-80
2023/09/27 16:46:27;;;;;;;22.17;16.93;;;20.80;99.70;;;;;;10400702;22;20299;-80
2023/09/27 16:51:31;;;;;;;17.63;11.93;;;20.70;99.90;;;;;;10344298;28;20605;-79
2023/09/27 16:56:52;;;;;;;9.67;7.67;;;20.60;99.90;;;;;;10326974;28;20236;-79
2023/09/27 17:02:02;;;;;;;4.20;3.90;;;20.60;99.90;;;;;;10311879;28;20211;-81
2023/09/27 17:07:34;;;;;;;;;;;;;;;;;;;;;
2023/09/27 17:13:10;;;;;;;3.30;3.10;;;20.30;99.90;;;;;;10420602;28;21316;-81
2023/09/27 17:18:32;;;;;;;3.73;3.43;;;20.20;99.90;;;;;;10381147;28;20227;-81
2023/09/27 17:23:34;;;;;;;4.20;3.90;;;20.10;99.90;;;;;;10348709;28;20273;-82
2023/09/27 17:28:38;;;;;;;3.07;2.87;;;20.00;99.90;;;;;;10373209;28;20207;-82
2023/09/27 17:33:42;;;;;;;3.37;3.17;;;19.80;99.90;;;;;;10328495;28;20234;-80
2023/09/27 17:38:44;;;;;;;4.60;4.20;;;19.80;99.90;;;;;;10343220;28;20669;-81
2023/09/27 17:43:48;;;;;;;4.20;3.90;;;19.70;99.90;;;;;;10333686;28;20223;-81
2023/09/27 17:48:51;;;;;;;3.93;3.70;;;19.60;99.90;;;;;;10369359;28;20689;-80
2023/09/27 17:53:53;;;;;;;3.70;3.50;;;19.60;99.90;;;;;;10351575;28;20314;-80
2023/09/27 17:58:57;;;;;;;3.70;3.40;;;19.50;99.90;;;;;;10373239;28;20222;-80
2023/09/27 18:03:59;;;;;;;4.40;4.00;;;19.40;99.90;;;;;;10370123;28;20240;-80
2023/09/27 18:09:01;;;;;;;6.07;4.03;;;19.40;99.90;;;;;;10371843;28;20216;-80
2023/09/27 18:14:04;;;;;;;3.97;3.67;;;19.30;99.90;;;;;;10362117;28;20235;-80
2023/09/27 18:19:06;;;;;;;6.93;3.73;;;19.30;99.90;;;;;;10346348;28;20253;-80
2023/09/27 18:24:09;;;;;;;4.27;3.80;;;19.20;99.90;;;;;;10337471;28;20289;-80
2023/09/27 18:29:12;;;;;;;3.87;3.67;;;19.10;99.90;;;;;;10371776;28;20246;-80
2023/09/27 18:34:14;;;;;;;4.60;4.30;;;19.10;99.90;;;;;;10355595;28;20282;-80
2023/09/27 18:39:17;;;;;;;4.73;4.23;;;19.00;99.90;;;;;;10371492;28;20211;-80
2023/09/27 18:44:20;;;;;;;5.00;4.20;;;19.00;99.90;;;;;;10355088;28;20223;-81
2023/09/27 18:49:22;;;;;;;5.00;4.50;;;18.90;99.90;;;;;;10371475;28;20698;-81
2023/09/27 18:54:25;;;;;;;4.93;4.40;;;18.90;99.90;;;;;;10389424;28;20294;-80
2023/09/27 18:59:28;;;;;;;5.37;4.97;;;18.80;99.90;;;;;;10370899;28;20566;-80
2023/09/27 19:04:30;;;;;;;4.53;4.13;;;18.80;99.90;;;;;;10363480;28;20713;-80
2023/09/27 19:09:32;;;;;;;4.40;4.10;;;18.80;99.90;;;;;;10362193;28;20208;-81
2023/09/27 19:14:36;;;;;;;4.03;3.73;;;18.70;99.90;;;;;;10376768;28;20973;-80
2023/09/27 19:19:42;;;;;;;4.40;3.90;;;18.60;99.90;;;;;;10333024;28;20686;-80
2023/09/27 19:24:44;;;;;;;4.40;4.00;;;18.60;99.90;;;;;;10368017;28;20332;-80
2023/09/27 19:29:48;;;;;;;4.40;4.00;;;18.50;99.90;;;;;;10353968;28;20802;-79
2023/09/27 19:34:50;;;;;;;5.47;3.90;;;18.50;99.90;;;;;;10366965;28;20227;-80
2023/09/27 19:39:53;;;;;;;4.63;4.23;;;18.40;99.90;;;;;;10375301;28;20249;-80
2023/09/27 19:44:57;;;;;;;4.47;4.10;;;18.40;99.90;;;;;;10371819;28;20242;-79
2023/09/27 19:50:02;;;;;;;3.90;3.60;;;18.30;99.90;;;;;;10370066;28;20278;-80
2023/09/27 19:55:06;;;;;;;4.77;4.37;;;18.30;99.90;;;;;;10351291;28;20222;-81
2023/09/27 20:00:13;;;;;;;3.97;3.73;;;18.20;99.90;;;;;;10374254;28;20257;-80
2023/09/27 20:05:16;;;;;;;7.43;3.83;;;18.20;99.90;;;;;;10368449;28;20274;-81
2023/09/27 20:10:18;;;;;;;4.73;4.33;;;18.20;99.90;;;;;;10368025;28;20211;-80
2023/09/27 20:15:22;;;;;;;7.43;4.33;;;18.10;99.90;;;;;;10357958;28;20234;-81
2023/09/27 20:20:24;;;;;;;4.10;3.80;;;18.10;99.90;;;;;;10374258;28;20199;-79
2023/09/27 20:25:26;;;;;;;4.73;4.43;;;18.10;99.90;;;;;;10372561;28;20925;-80
2023/09/27 20:30:29;;;;;;;4.43;4.10;;;18.00;99.90;;;;;;10374962;28;20311;-81
2023/09/27 20:35:32;;;;;;;4.00;3.60;;;18.00;99.90;;;;;;10374571;28;20714;-80
2023/09/27 20:40:34;;;;;;;4.97;4.50;;;17.90;99.90;;;;;;10350971;28;20246;-81
2023/09/27 20:45:37;;;;;;;4.33;3.93;;;17.90;99.90;;;;;;10362314;28;20230;-80
2023/09/27 20:50:39;;;;;;;7.43;4.97;;;17.80;99.90;;;;;;10372079;28;20577;-80
2023/09/27 20:55:41;;;;;;;4.83;4.43;;;17.80;99.90;;;;;;10375931;28;20243;-80
2023/09/27 21:00:44;;;;;;;4.33;4.03;;;17.80;99.90;;;;;;10354624;28;20624;-80
2023/09/27 21:05:49;;;;;;;4.13;3.83;;;17.70;99.90;;;;;;10373926;28;20227;-79
2023/09/27 21:10:51;;;;;;;4.60;4.20;;;17.70;99.90;;;;;;10373589;28;20203;-79
2023/09/27 21:15:55;;;;;;;4.40;4.00;;;17.70;99.90;;;;;;10375026;28;20410;-80
2023/09/27 21:20:57;;;;;;;4.50;4.13;;;17.60;99.90;;;;;;10356775;28;20207;-80
2023/09/27 21:25:59;;;;;;;6.70;4.80;;;17.60;99.90;;;;;;10352706;28;20222;-80
2023/09/27 21:31:06;;;;;;;6.30;4.70;;;17.60;99.90;;;;;;10356425;28;20206;-79
2023/09/27 21:36:09;;;;;;;4.90;4.47;;;17.50;99.90;;;;;;10354194;28;20234;-81
2023/09/27 21:41:11;;;;;;;5.50;4.97;;;17.50;99.90;;;;;;10357063;28;20200;-79
2023/09/27 21:46:19;;;;;;;5.80;5.30;;;17.50;99.90;;;;;;10356814;28;20211;-79
2023/09/27 21:51:21;;;;;;;4.73;4.33;;;17.40;99.90;;;;;;10363447;28;20253;-79
2023/09/27 21:56:23;;;;;;;5.40;4.50;;;17.40;99.90;;;;;;10359337;28;20235;-79
2023/09/27 22:01:27;;;;;;;5.00;4.60;;;17.40;99.90;;;;;;10374856;28;20208;-80
2023/09/27 22:06:29;;;;;;;4.80;4.50;;;17.30;99.90;;;;;;10376203;28;20231;-79
2023/09/27 22:11:31;;;;;;;5.17;4.73;;;17.30;99.90;;;;;;10372653;28;20661;-78
2023/09/27 22:16:36;;;;;;;5.00;4.40;;;17.30;99.90;;;;;;10373317;28;20714;-80
2023/09/27 22:21:42;;;;;;;5.87;5.27;;;17.30;99.90;;;;;;10386048;28;20206;-80
2023/09/27 22:26:50;;;;;;;4.83;4.43;;;17.30;99.90;;;;;;10362723;28;20219;-79
2023/09/27 22:31:57;;;;;;;5.33;4.93;;;17.30;99.90;;;;;;10384368;28;20670;-78
2023/09/27 22:37:00;;;;;;;5.40;4.90;;;17.30;99.90;;;;;;10382518;28;20255;-78
2023/09/27 22:42:03;;;;;;;8.13;5.13;;;17.30;99.90;;;;;;10361621;28;20204;-78
2023/09/27 22:47:12;;;;;;;5.03;4.70;;;17.30;99.90;;;;;;10424987;23;20238;-79
2023/09/27 22:52:15;;;;;;;6.60;6.00;;;17.30;99.90;;;;;;10374208;28;20254;-78
2023/09/27 22:57:20;;;;;;;5.40;4.90;;;17.30;99.90;;;;;;10385814;28;20347;-78
2023/09/27 23:02:31;;;;;;;5.27;4.97;;;17.30;99.90;;;;;;10410924;28;20206;-79
2023/09/27 23:07:34;;;;;;;5.70;5.30;;;17.30;99.90;;;;;;10404035;28;20245;-78
2023/09/27 23:12:39;;;;;;;4.70;4.40;;;17.30;99.90;;;;;;10394643;28;20304;-80
2023/09/27 23:18:10;;;;;;;7.33;4.63;;;17.30;99.90;;;;;;10399427;28;20241;-80
2023/09/27 23:23:55;;;;;;;5.83;5.23;;;17.30;99.90;;;;;;10416223;28;20241;-79
2023/09/27 23:34:37;;;;;;;6.53;5.27;;;17.30;99.90;;;;;;10417107;28;20218;-80
2023/09/27 23:40:14;;;;;;;5.20;4.80;;;17.30;99.90;;;;;;10382985;28;20226;-80
2023/09/27 23:45:24;;;;;;;4.97;4.57;;;17.30;99.90;;;;;;10422533;28;20637;-79
2023/09/27 23:50:38;;;;;;;5.20;4.77;;;17.30;99.90;;;;;;10416400;28;20206;-79
2023/09/27 23:55:47;;;;;;;5.67;5.17;;;17.30;99.90;;;;;;10384002;28;20744;-79
